Time;durP1;ratioP1;P1;durP2;ratioP2;P2;SDS_P1;SDS_P2;PMS_P1;PMS_P2;Temp;Humidity;BMP_temperature;BMP_pressure;BME280_temperature;BME280_humidity;BME280_pressure;Samples;Min_cycle;Max_cycle;Signal;HPM_P1;HPM_P2
2022/09/24 00:01:25;;;;;;;;;;;;;;;25.21;nan;100706.81;5055629;28;1276;-33
2022/09/24 00:03:56;;;;;;;;;;;;;;;25.19;nan;100711.44;5055547;28;1910;-34
2022/09/24 00:06:22;;;;;;;;;;;;;;;25.16;nan;100701.03;5055842;28;1339;-33
2022/09/24 00:08:50;;;;;;;;;;;;;;;25.15;nan;100671.84;5055655;28;881;-33
2022/09/24 00:11:20;;;;;;;;;;;;;;;25.14;nan;100662.16;5055765;28;1205;-33
2022/09/24 00:13:47;;;;;;;;;;;;;;;25.12;nan;100642.78;5055525;28;797;-36
2022/09/24 00:16:15;;;;;;;;;;;;;;;25.09;nan;100635.03;5055450;28;1164;-34
2022/09/24 00:18:42;;;;;;;;;;;;;;;25.06;nan;100617.50;5055689;28;1154;-32
2022/09/24 00:21:29;;;;;;;;;;;;;;;25.02;nan;100605.41;5055226;28;1216;-34
2022/09/24 00:24:00;;;;;;;;;;;;;;;25.01;nan;100603.72;5055381;28;1906;-32
2022/09/24 00:29:13;;;;;;;;;;;;;;;24.97;nan;100623.59;5055346;28;637;-29
2022/09/24 00:31:39;;;;;;;;;;;;;;;24.96;nan;100632.56;5055279;28;1287;-35
2022/09/24 00:34:06;;;;;;;;;;;;;;;24.96;nan;100637.91;5055351;28;909;-31
2022/09/24 00:36:33;;;;;;;;;;;;;;;24.95;nan;100644.22;5055337;28;1200;-32
2022/09/24 00:39:00;;;;;;;;;;;;;;;24.95;nan;100649.56;5055117;28;698;-31
2022/09/24 00:41:30;;;;;;;;;;;;;;;24.96;nan;100644.06;5054290;28;1244;-30
2022/09/24 00:43:58;;;;;;;;;;;;;;;24.96;nan;100659.22;5055480;28;1971;-33
2022/09/24 00:46:24;;;;;;;;;;;;;;;24.95;nan;100662.88;5055032;28;1203;-27
2022/09/24 00:49:11;;;;;;;;;;;;;;;24.95;nan;100657.53;5055320;28;953;-27
2022/09/24 00:51:40;;;;;;;;;;;;;;;24.94;nan;100640.72;5034830;28;1302;-28
2022/09/24 00:54:08;;;;;;;;;;;;;;;24.94;nan;100607.88;5035215;28;914;-32
2022/09/24 00:56:37;;;;;;;;;;;;;;;24.92;nan;100600.03;5035237;28;1328;-32
2022/09/24 00:59:05;;;;;;;;;;;;;;;24.93;nan;100600.84;5035262;28;969;-35
2022/09/24 01:01:32;;;;;;;;;;;;;;;24.92;nan;100577.88;5035122;28;1194;-27
2022/09/24 01:04:00;;;;;;;;;;;;;;;24.91;nan;100561.03;5034671;28;1962;-31
2022/09/24 01:06:27;;;;;;;;;;;;;;;24.92;nan;100545.91;5034811;28;1149;-28
2022/09/24 01:08:55;;;;;;;;;;;;;;;24.92;nan;100551.22;5034589;28;821;-31
2022/09/24 01:11:28;;;;;;;;;;;;;;;24.92;nan;100544.09;5034555;28;1293;-29
2022/09/24 01:13:59;;;;;;;;;;;;;;;24.91;nan;100544.19;5034574;28;755;-32
2022/09/24 01:16:44;;;;;;;;;;;;;;;24.92;nan;100551.22;5034831;28;1182;-30
2022/09/24 01:19:11;;;;;;;;;;;;;;;24.91;nan;100553.03;5034595;28;730;-32
2022/09/24 01:21:41;;;;;;;;;;;;;;;24.91;nan;100536.22;5034643;28;1210;-30
2022/09/24 01:24:08;;;;;;;;;;;;;;;24.91;nan;100526.41;5034143;28;1914;-31
2022/09/24 01:26:47;;;;;;;;;;;;;;;24.91;nan;100514.88;5034610;28;1223;-31
2022/09/24 01:29:27;;;;;;;;;;;;;;;24.91;nan;100499.75;5034760;28;692;-34
2022/09/24 01:32:05;;;;;;;;;;;;;;;24.92;nan;100508.59;5034631;28;1202;-30
2022/09/24 01:35:05;;;;;;;;;;;;;;;24.92;nan;100519.25;5033535;28;911;-28
2022/09/24 01:37:33;;;;;;;;;;;;;;;24.91;nan;100534.41;5054195;28;1103;-31
2022/09/24 01:40:02;;;;;;;;;;;;;;;24.92;nan;100540.56;5034213;28;1204;-31
2022/09/24 01:42:29;;;;;;;;;;;;;;;24.92;nan;100540.56;5034438;28;1130;-32
2022/09/24 01:44:57;;;;;;;;;;;;;;;24.93;nan;100542.25;5034087;28;1910;-31
2022/09/24 01:47:31;;;;;;;;;;;;;;;24.93;nan;100531.59;5034051;28;953;-29
2022/09/24 01:50:00;;;;;;;;;;;;;;;24.91;nan;100513.06;5040017;28;1775;-34
2022/09/24 01:52:30;;;;;;;;;;;;;;;24.92;nan;100511.25;5053791;28;1518;-29
2022/09/24 01:54:59;;;;;;;;;;;;;;;24.90;nan;100508.72;5054037;28;1192;-33
2022/09/24 01:57:32;;;;;;;;;;;;;;;24.91;nan;100517.56;5054062;28;1114;-30
2022/09/24 02:00:08;;;;;;;;;;;;;;;24.93;nan;100523.59;5053903;28;1275;-33
2022/09/24 02:02:35;;;;;;;;;;;;;;;24.92;nan;100527.25;5053896;28;1031;-32
2022/09/24 02:05:05;;;;;;;;;;;;;;;24.91;nan;100512.22;5053474;28;1902;-30
2022/09/24 02:07:38;;;;;;;;;;;;;;;24.91;nan;100512.22;5053752;28;1027;-30
2022/09/24 02:10:12;;;;;;;;;;;;;;;24.91;nan;100513.06;5053718;28;1345;-33
2022/09/24 02:12:42;;;;;;;;;;;;;;;24.91;nan;100512.22;5053760;28;1034;-29
2022/09/24 02:15:11;;;;;;;;;;;;;;;24.91;nan;100512.22;5053445;28;1267;-30
2022/09/24 02:17:40;;;;;;;;;;;;;;;24.90;nan;100518.53;5053710;28;1039;-35
2022/09/24 02:20:12;;;;;;;;;;;;;;;24.90;nan;100505.19;5053555;28;1154;-27
2022/09/24 02:22:40;;;;;;;;;;;;;;;24.90;nan;100505.19;5053548;28;1040;-33
2022/09/24 02:25:09;;;;;;;;;;;;;;;24.89;nan;100508.88;5052994;28;1973;-31
2022/09/24 02:27:36;;;;;;;;;;;;;;;24.88;nan;100513.34;5052831;28;1023;-29
2022/09/24 02:30:04;;;;;;;;;;;;;;;24.88;nan;100510.69;5053155;28;1217;-33
2022/09/24 02:32:33;;;;;;;;;;;;;;;24.89;nan;100519.53;5053366;28;1107;-32
2022/09/24 02:35:02;;;;;;;;;;;;;;;24.90;nan;100510.53;5052582;28;1206;-33
2022/09/24 02:37:32;;;;;;;;;;;;;;;24.89;nan;100522.19;5053428;28;1030;-29
2022/09/24 02:39:59;;;;;;;;;;;;;;;24.89;nan;100527.50;5053247;28;1225;-30
2022/09/24 02:42:26;;;;;;;;;;;;;;;24.89;nan;100530.19;5053243;28;1289;-32
2022/09/24 02:44:56;;;;;;;;;;;;;;;24.90;nan;100535.34;5053278;28;1914;-33
2022/09/24 02:47:23;;;;;;;;;;;;;;;24.90;nan;100539.84;5053373;28;939;-28
2022/09/24 02:49:49;;;;;;;;;;;;;;;24.88;nan;100531.16;5052931;28;1544;-28
2022/09/24 02:52:17;;;;;;;;;;;;;;;24.88;nan;100534.66;5053147;28;1278;-35
2022/09/24 02:54:44;;;;;;;;;;;;;;;24.87;nan;100535.63;5053328;28;1205;-31
2022/09/24 02:57:11;;;;;;;;;;;;;;;24.88;nan;100544.47;5053243;28;1029;-27
2022/09/24 02:59:37;;;;;;;;;;;;;;;24.87;nan;100545.44;5053199;28;906;-29
2022/09/24 03:02:04;;;;;;;;;;;;;;;24.86;nan;100552.59;5054224;28;1242;-33
2022/09/24 03:04:31;;;;;;;;;;;;;;;24.86;nan;100565.94;5056990;28;1906;-29
2022/09/24 03:06:58;;;;;;;;;;;;;;;24.86;nan;100581.06;5057270;28;1315;-33
2022/09/24 03:09:24;;;;;;;;;;;;;;;24.85;nan;100587.34;5057282;28;801;-33
2022/09/24 03:11:51;;;;;;;;;;;;;;;24.85;nan;100587.34;5056904;28;1311;-33
2022/09/24 03:14:18;;;;;;;;;;;;;;;24.85;nan;100593.53;5056826;28;752;-36
2022/09/24 03:16:44;;;;;;;;;;;;;;;24.86;nan;100583.72;5056828;28;1351;-31
2022/09/24 03:19:11;;;;;;;;;;;;;;;24.85;nan;100592.69;5056631;28;747;-30
2022/09/24 03:21:38;;;;;;;;;;;;;;;24.85;nan;100592.69;5055967;28;1192;-29
2022/09/24 03:24:04;;;;;;;;;;;;;;;24.85;nan;100593.53;5057021;28;824;-32
2022/09/24 03:26:32;;;;;;;;;;;;;;;24.85;nan;100604.19;5056565;28;1909;-28
2022/09/24 03:28:58;;;;;;;;;;;;;;;24.85;nan;100606.00;5056830;28;1134;-31
2022/09/24 03:31:25;;;;;;;;;;;;;;;24.84;nan;100602.50;5056693;28;1192;-35
2022/09/24 03:33:52;;;;;;;;;;;;;;;24.83;nan;100594.63;5056808;28;918;-29
2022/09/24 03:36:23;;;;;;;;;;;;;;;24.84;nan;100601.63;5056375;28;1178;-33
2022/09/24 03:38:55;;;;;;;;;;;;;;;24.84;nan;100593.66;5056313;28;703;-34
2022/09/24 03:41:26;;;;;;;;;;;;;;;24.84;nan;100596.31;5056596;28;1263;-30
2022/09/24 03:43:53;;;;;;;;;;;;;;;24.84;nan;100596.31;5056832;28;1463;-34
2022/09/24 03:46:19;;;;;;;;;;;;;;;24.85;nan;100606.00;5056354;28;1981;-33
2022/09/24 03:48:47;;;;;;;;;;;;;;;24.83;nan;100606.16;5056460;28;1099;-31
2022/09/24 03:51:15;;;;;;;;;;;;;;;24.83;nan;100595.50;5056092;28;1337;-34
2022/09/24 03:53:41;;;;;;;;;;;;;;;24.83;nan;100584.84;5056519;28;1214;-30
2022/09/24 03:56:10;;;;;;;;;;;;;;;24.81;nan;100584.09;5056425;28;1228;-35
2022/09/24 03:58:37;;;;;;;;;;;;;;;24.83;nan;100594.63;5056678;28;1180;-29
2022/09/24 04:01:05;;;;;;;;;;;;;;;24.83;nan;100595.50;5056337;28;1177;-28
2022/09/24 04:03:31;;;;;;;;;;;;;;;24.81;nan;100596.56;5056575;28;1176;-35
2022/09/24 04:05:58;;;;;;;;;;;;;;;24.81;nan;100592.09;5056047;28;1910;-29
2022/09/24 04:08:25;;;;;;;;;;;;;;;24.81;nan;100589.44;5056123;28;1582;-28
2022/09/24 04:10:52;;;;;;;;;;;;;;;24.81;nan;100601.91;5056092;28;1225;-29
2022/09/24 04:13:18;;;;;;;;;;;;;;;24.81;nan;100599.22;5055707;28;914;-32
2022/09/24 04:15:46;;;;;;;;;;;;;;;24.80;nan;100594.88;5055858;28;1216;-35
2022/09/24 04:18:13;;;;;;;;;;;;;;;24.79;nan;100598.50;5056026;28;1118;-35
2022/09/24 04:20:40;;;;;;;;;;;;;;;24.78;nan;100594.97;5056031;28;1208;-32
2022/09/24 04:23:09;;;;;;;;;;;;;;;24.79;nan;100599.34;5055672;28;1284;-30
2022/09/24 04:25:36;;;;;;;;;;;;;;;24.80;nan;100602.84;5055568;28;1918;-30
2022/09/24 04:28:04;;;;;;;;;;;;;;;24.78;nan;100600.31;5055592;28;1041;-30
2022/09/24 04:30:31;;;;;;;;;;;;;;;24.79;nan;100606.50;5055017;28;1284;-30
2022/09/24 04:32:59;;;;;;;;;;;;;;;24.78;nan;100613.63;5056008;28;1023;-33
2022/09/24 04:35:28;;;;;;;;;;;;;;;24.77;nan;100619.09;5055651;28;1226;-35
2022/09/24 04:37:56;;;;;;;;;;;;;;;24.77;nan;100622.63;5055445;28;1505;-32
2022/09/24 04:40:22;;;;;;;;;;;;;;;24.77;nan;100624.44;5055482;28;1208;-35
2022/09/24 04:42:49;;;;;;;;;;;;;;;24.76;nan;100628.06;5055569;28;1133;-35
2022/09/24 04:45:18;;;;;;;;;;;;;;;24.76;nan;100625.41;5055057;28;1910;-32
2022/09/24 04:47:52;;;;;;;;;;;;;;;24.76;nan;100631.56;5055620;28;1115;-30
2022/09/24 04:50:19;;;;;;;;;;;;;;;24.76;nan;100633.38;5055166;28;1639;-32
2022/09/24 04:52:46;;;;;;;;;;;;;;;24.76;nan;100638.72;5055244;28;1193;-33
2022/09/24 04:55:13;;;;;;;;;;;;;;;24.76;nan;100634.22;5055257;28;1294;-31
2022/09/24 04:57:40;;;;;;;;;;;;;;;24.75;nan;100635.19;5055316;28;913;-31
2022/09/24 05:00:08;;;;;;;;;;;;;;;24.74;nan;100632.69;5055105;28;1310;-33
2022/09/24 05:02:34;;;;;;;;;;;;;;;24.74;nan;100627.34;5044970;28;1659;-31
2022/09/24 05:05:02;;;;;;;;;;;;;;;24.75;nan;100629.03;5047398;28;1922;-33
2022/09/24 05:07:28;;;;;;;;;;;;;;;24.74;nan;100633.53;5042690;28;1092;-30
2022/09/24 05:09:56;;;;;;;;;;;;;;;24.73;nan;100628.31;5055041;28;1212;-30
2022/09/24 05:12:22;;;;;;;;;;;;;;;24.73;nan;100630.97;5055003;28;1030;-33
2022/09/24 05:14:49;;;;;;;;;;;;;;;24.73;nan;100637.16;5034664;28;1297;-32
2022/09/24 05:17:16;;;;;;;;;;;;;;;24.73;nan;100628.31;5035093;28;1027;-31
2022/09/24 05:19:43;;;;;;;;;;;;;;;24.73;nan;100630.97;5034831;28;1205;-28
2022/09/24 05:22:10;;;;;;;;;;;;;;;24.72;nan;100634.59;5034467;28;1002;-33
2022/09/24 05:24:36;;;;;;;;;;;;;;;24.73;nan;100636.31;5044884;28;804;-23
2022/09/24 05:27:09;;;;;;;;;;;;;;;24.71;nan;100635.59;5053470;28;1914;-31
2022/09/24 05:29:40;;;;;;;;;;;;;;;24.72;nan;100632.78;5054707;28;695;-32
2022/09/24 05:32:07;;;;;;;;;;;;;;;24.72;nan;100634.59;5054060;28;1056;-32
2022/09/24 05:34:34;;;;;;;;;;;;;;;24.71;nan;100630.28;5044840;28;921;-26
2022/09/24 05:37:01;;;;;;;;;;;;;;;24.70;nan;100633.91;5034337;28;1154;-32
2022/09/24 05:39:28;;;;;;;;;;;;;;;24.71;nan;100632.94;5034383;28;807;-30
2022/09/24 05:41:59;;;;;;;;;;;;;;;24.69;nan;100641.03;5034398;28;1303;-30
2022/09/24 05:44:26;;;;;;;;;;;;;;;24.70;nan;100632.09;5034181;28;769;-34
2022/09/24 05:46:53;;;;;;;;;;;;;;;24.70;nan;100642.75;5049198;28;1973;-33
2022/09/24 05:49:19;;;;;;;;;;;;;;;24.69;nan;100640.19;5033961;28;1856;-34
2022/09/24 05:51:47;;;;;;;;;;;;;;;24.69;nan;100645.50;5033968;28;1388;-31
2022/09/24 05:54:15;;;;;;;;;;;;;;;24.69;nan;100646.38;5034211;28;1068;-33
2022/09/24 05:56:42;;;;;;;;;;;;;;;24.69;nan;100656.16;5033879;28;1151;-36
2022/09/24 05:59:09;;;;;;;;;;;;;;;24.69;nan;100666.81;5033765;28;1082;-26
2022/09/24 06:01:36;;;;;;;;;;;;;;;24.69;nan;100661.50;5033537;28;1210;-23
2022/09/24 06:04:03;;;;;;;;;;;;;;;24.68;nan;100650.03;5033825;28;922;-29
2022/09/24 06:06:34;;;;;;;;;;;;;;;24.67;nan;100643.00;5033509;28;1985;-36
2022/09/24 06:09:01;;;;;;;;;;;;;;;24.68;nan;100655.34;5038765;28;1303;-30
2022/09/24 06:11:32;;;;;;;;;;;;;;;24.68;nan;100649.16;5050515;28;1378;-24
2022/09/24 06:14:04;;;;;;;;;;;;;;;24.68;nan;100643.84;5052959;28;1043;-32
2022/09/24 06:16:32;;;;;;;;;;;;;;;24.68;nan;100638.53;5053280;28;1290;-34
2022/09/24 06:18:59;;;;;;;;;;;;;;;24.69;nan;100645.50;5052842;28;1015;-29
2022/09/24 06:21:25;;;;;;;;;;;;;;;24.68;nan;100654.50;5053301;28;1525;-32
2022/09/24 06:23:52;;;;;;;;;;;;;;;24.68;nan;100657.16;5053038;28;1016;-34
2022/09/24 06:26:19;;;;;;;;;;;;;;;24.68;nan;100666.00;5052189;28;1914;-32
2022/09/24 06:28:45;;;;;;;;;;;;;;;24.69;nan;100669.47;5053054;28;1019;-35
2022/09/24 06:31:12;;;;;;;;;;;;;;;24.69;nan;100658.84;5053208;28;1213;-33
2022/09/24 06:33:39;;;;;;;;;;;;;;;24.68;nan;100654.50;5068056;28;1336;-35
2022/09/24 06:36:06;;;;;;;;;;;;;;;24.68;nan;100654.50;5052602;28;1217;-29
2022/09/24 06:38:34;;;;;;;;;;;;;;;24.69;nan;100641.03;5052759;28;1237;-28
2022/09/24 06:41:02;;;;;;;;;;;;;;;24.68;nan;100639.38;5052968;28;1168;-33
2022/09/24 06:43:29;;;;;;;;;;;;;;;24.69;nan;100634.84;5053077;28;1191;-31
2022/09/24 06:45:57;;;;;;;;;;;;;;;24.69;nan;100640.19;5051636;28;1969;-32
2022/09/24 06:48:25;;;;;;;;;;;;;;;24.70;nan;100633.91;5051676;28;1266;-35
2022/09/24 06:50:52;;;;;;;;;;;;;;;24.69;nan;100641.03;5051621;28;1673;-32
2022/09/24 06:53:19;;;;;;;;;;;;;;;24.70;nan;100642.75;5051726;28;1247;-35
2022/09/24 06:55:46;;;;;;;;;;;;;;;24.70;nan;100652.53;5051853;28;1363;-32
2022/09/24 06:58:14;;;;;;;;;;;;;;;24.71;nan;100654.25;5051180;28;1313;-33
2022/09/24 07:00:41;;;;;;;;;;;;;;;24.72;nan;100661.25;5051332;28;1307;-32
2022/09/24 07:03:15;;;;;;;;;;;;;;;24.72;nan;100664.75;5051246;28;1274;-33
2022/09/24 07:05:42;;;;;;;;;;;;;;;24.71;nan;100660.41;5049074;28;1977;-32
2022/09/24 07:08:09;;;;;;;;;;;;;;;24.73;nan;100657.63;5050750;28;1274;-33
2022/09/24 07:10:39;;;;;;;;;;;;;;;24.73;nan;100665.59;5050811;28;1355;-31
2022/09/24 07:13:06;;;;;;;;;;;;;;;24.74;nan;100667.31;5051364;28;1583;-29
2022/09/24 07:15:33;;;;;;;;;;;;;;;24.74;nan;100667.31;5051055;28;1220;-28
2022/09/24 07:18:00;;;;;;;;;;;;;;;24.73;nan;100657.63;5050868;28;1314;-30
2022/09/24 07:20:27;;;;;;;;;;;;;;;24.73;nan;100657.63;5050471;28;1284;-35
2022/09/24 07:22:54;;;;;;;;;;;;;;;24.73;nan;100662.94;5050761;28;1289;-26
2022/09/24 07:25:21;;;;;;;;;;;;;;;24.72;nan;100672.75;5048670;28;1314;-28
2022/09/24 07:27:48;;;;;;;;;;;;;;;24.72;nan;100664.75;5047993;28;1907;-25
2022/09/24 07:30:15;;;;;;;;;;;;;;;24.74;nan;100672.63;5047665;28;1299;-31
2022/09/24 07:32:42;;;;;;;;;;;;;;;24.74;nan;100676.16;5048323;28;1135;-32
2022/09/24 07:35:09;;;;;;;;;;;;;;;24.76;nan;100668.00;5052041;28;1281;-21
2022/09/24 07:37:36;;;;;;;;;;;;;;;24.76;nan;100673.34;5051140;28;1333;-30
2022/09/24 07:40:02;;;;;;;;;;;;;;;24.77;nan;100672.38;5050285;28;1326;-27
2022/09/24 07:42:29;;;;;;;;;;;;;;;24.80;nan;100674.78;5051004;28;1341;-26
2022/09/24 07:44:56;;;;;;;;;;;;;;;24.79;nan;100681.06;5045176;28;1659;-26
2022/09/24 07:47:23;;;;;;;;;;;;;;;24.80;nan;100690.78;5050534;28;1918;-31
2022/09/24 07:49:49;;;;;;;;;;;;;;;24.82;nan;100688.84;5053134;28;1540;-33
2022/09/24 07:52:17;;;;;;;;;;;;;;;24.83;nan;100690.53;5054864;28;1234;-24
2022/09/24 07:54:44;;;;;;;;;;;;;;;24.81;nan;100688.00;5054414;28;1259;-34
2022/09/24 07:57:13;;;;;;;;;;;;;;;24.80;nan;100682.78;5055596;28;1117;-32
2022/09/24 07:59:43;;;;;;;;;;;;;;;24.79;nan;100678.41;5055296;28;1533;-36
2022/09/24 08:02:14;;;;;;;;;;;;;;;24.80;nan;100680.13;5055611;28;1120;-28
2022/09/24 08:04:41;;;;;;;;;;;;;;;24.78;nan;100685.56;5054356;28;1256;-28
2022/09/24 08:07:08;;;;;;;;;;;;;;;24.78;nan;100685.56;5045988;28;1981;-29
2022/09/24 08:09:35;;;;;;;;;;;;;;;24.76;nan;100686.66;5040355;28;917;-27
2022/09/24 08:12:02;;;;;;;;;;;;;;;24.75;nan;100698.28;5035862;28;1391;-32
2022/09/24 08:14:28;;;;;;;;;;;;;;;24.73;nan;100701.09;5039613;28;882;-27
2022/09/24 08:16:55;;;;;;;;;;;;;;;24.72;nan;100701.19;5035768;28;1162;-25
2022/09/24 08:19:22;;;;;;;;;;;;;;;24.69;nan;100694.31;5039199;28;936;-30
2022/09/24 08:21:49;;;;;;;;;;;;;;;24.68;nan;100694.44;5040590;28;1451;-29
2022/09/24 08:24:16;;;;;;;;;;;;;;;24.68;nan;100702.44;5049430;28;1224;-27
2022/09/24 08:26:42;;;;;;;;;;;;;;;24.66;nan;100704.38;5050966;28;1971;-29
2022/09/24 08:29:09;;;;;;;;;;;;;;;24.66;nan;100707.03;5047128;28;1267;-28
2022/09/24 08:31:36;;;;;;;;;;;;;;;24.66;nan;100710.53;5047258;28;1375;-29
2022/09/24 08:34:03;;;;;;;;;;;;;;;24.66;nan;100717.69;5047981;28;1311;-27
2022/09/24 08:36:29;;;;;;;;;;;;;;;24.68;nan;100718.44;5051158;28;1334;-28
2022/09/24 08:38:56;;;;;;;;;;;;;;;;;;5049628;28;1171;-40
2022/09/24 08:41:35;;;;;;;;;;;;;;;24.54;nan;100727.53;5049931;28;1330;-40
2022/09/24 08:44:14;;;;;;;;;;;;;;;24.55;nan;100725.72;5048512;28;1279;-41
2022/09/24 08:49:44;;;;;;;;;;;;;;;24.54;nan;100708.88;5049383;28;1776;-41
2022/09/24 08:52:13;;;;;;;;;;;;;;;24.57;nan;100715.78;5045317;28;1317;-40
2022/09/24 08:54:41;;;;;;;;;;;;;;;24.69;nan;100718.28;5041123;28;1280;-38
2022/09/24 08:57:13;;;;;;;;;;;;;;;24.69;nan;100718.28;5035024;28;1137;-43
2022/09/24 08:59:42;;;;;;;;;;;;;;;24.88;nan;100440.41;5038943;28;941;-43
2022/09/24 09:02:27;;;;;;;;;;;;;;;24.85;nan;100718.75;5035003;28;1012;-43
2022/09/24 09:05:03;;;;;;;;;;;;;;;24.81;nan;100709.31;5038226;28;1276;-42
2022/09/24 09:07:43;;;;;;;;;;;;;;;24.80;nan;100715.59;5042408;28;1911;-42
2022/09/24 09:10:14;;;;;;;;;;;;;;;24.78;nan;100717.53;5034218;28;1288;-43
2022/09/24 09:12:47;;;;;;;;;;;;;;;24.79;nan;100729.03;5041541;28;1486;-43
2022/09/24 09:15:20;;;;;;;;;;;;;;;24.75;nan;100724.91;5033979;28;1277;-43
2022/09/24 09:18:05;;;;;;;;;;;;;;;24.74;nan;100723.25;5064418;28;1105;-41
2022/09/24 09:20:37;;;;;;;;;;;;;;;24.74;nan;100720.59;5051176;28;1151;-44
2022/09/24 09:23:13;;;;;;;;;;;;;;;24.73;nan;100722.41;5051706;28;1035;-42
2022/09/24 09:25:41;;;;;;;;;;;;;;;24.74;nan;100723.25;5051729;28;1208;-40
2022/09/24 09:28:20;;;;;;;;;;;;;;;24.74;nan;100728.56;5052727;28;1987;-43
2022/09/24 09:30:57;;;;;;;;;;;;;;;24.73;nan;100722.41;5053324;28;1275;-41
2022/09/24 09:33:43;;;;;;;;;;;;;;;24.72;nan;100723.34;5053069;28;1145;-42
2022/09/24 09:36:21;;;;;;;;;;;;;;;24.73;nan;100710.88;5051529;28;1205;-42
2022/09/24 09:38:59;;;;;;;;;;;;;;;24.74;nan;100704.59;5051863;28;1063;-42
2022/09/24 09:41:45;;;;;;;;;;;;;;;24.73;nan;100709.06;5051615;28;1280;-42
2022/09/24 09:44:40;;;;;;;;;;;;;;;24.72;nan;100704.72;5051555;28;1020;-41
2022/09/24 09:47:18;;;;;;;;;;;;;;;24.72;nan;100720.69;5051575;28;2000;-41
2022/09/24 09:49:47;;;;;;;;;;;;;;;24.73;nan;100726.88;5052598;28;1350;-43
2022/09/24 09:52:18;;;;;;;;;;;;;;;24.73;nan;100729.53;5053743;28;1153;-43
2022/09/24 09:54:45;;;;;;;;;;;;;;;24.74;nan;100737.41;5053511;28;1304;-44
2022/09/24 09:57:17;;;;;;;;;;;;;;;24.74;nan;100745.41;5053673;28;1057;-42
2022/09/24 09:59:48;;;;;;;;;;;;;;;24.72;nan;100741.16;5053094;28;1241;-42
2022/09/24 10:02:23;;;;;;;;;;;;;;;24.72;nan;100741.16;5053556;28;1045;-42
2022/09/24 10:04:51;;;;;;;;;;;;;;;24.72;nan;100741.16;5053576;28;1351;-42
2022/09/24 10:07:18;;;;;;;;;;;;;;;24.70;nan;100740.44;5053505;28;1918;-40
2022/09/24 10:09:45;;;;;;;;;;;;;;;24.70;nan;100729.78;5052909;28;1256;-42
2022/09/24 10:12:16;;;;;;;;;;;;;;;24.69;nan;100720.09;5052738;28;1060;-42
2022/09/24 10:14:43;;;;;;;;;;;;;;;24.68;nan;100723.75;5052693;28;1264;-44
2022/09/24 10:17:12;;;;;;;;;;;;;;;24.69;nan;100720.94;5053329;28;945;-42
2022/09/24 10:19:39;;;;;;;;;;;;;;;24.70;nan;100716.47;5068123;28;1092;-43
2022/09/24 10:22:08;;;;;;;;;;;;;;;24.72;nan;100717.19;5053110;28;1038;-42
2022/09/24 10:24:36;;;;;;;;;;;;;;;24.73;nan;100716.22;5052529;28;1126;-43
2022/09/24 10:27:09;;;;;;;;;;;;;;;24.72;nan;100718.03;5052466;28;1999;-43
2022/09/24 10:32:22;;;;;;;;;;;;;;;24.71;nan;100718.16;5053076;28;1073;-42
2022/09/24 10:35:05;;;;;;;;;;;;;;;24.70;nan;100713.81;5052628;28;1280;-43
2022/09/24 10:37:33;;;;;;;;;;;;;;;24.70;nan;100706.66;5053055;28;1029;-42
2022/09/24 10:40:09;;;;;;;;;;;;;;;24.70;nan;100705.81;5052915;28;1264;-43
2022/09/24 10:42:36;;;;;;;;;;;;;;;24.70;nan;100689.84;5052878;28;1041;-42
2022/09/24 10:45:09;;;;;;;;;;;;;;;24.68;nan;100692.63;5052245;28;1272;-42
2022/09/24 10:47:42;;;;;;;;;;;;;;;24.70;nan;100685.34;5053024;28;1987;-43
2022/09/24 10:50:09;;;;;;;;;;;;;;;24.70;nan;100681.84;5052470;28;1359;-43
2022/09/24 10:52:44;;;;;;;;;;;;;;;24.70;nan;100676.50;5053011;28;1147;-43
2022/09/24 10:55:11;;;;;;;;;;;;;;;24.71;nan;100678.22;5032422;28;1363;-43
2022/09/24 10:57:38;;;;;;;;;;;;;;;24.72;nan;100666.56;5041427;28;1120;-41
2022/09/24 11:00:13;;;;;;;;;;;;;;;24.73;nan;100665.59;5052100;28;1277;-43
2022/09/24 11:02:58;;;;;;;;;;;;;;;24.75;nan;100653.00;5052619;28;1234;-42
2022/09/24 11:05:48;;;;;;;;;;;;;;;24.75;nan;100645.00;5032095;28;1201;-41
2022/09/24 11:08:25;;;;;;;;;;;;;;;24.76;nan;100633.38;5038405;28;1997;-42
2022/09/24 11:11:02;;;;;;;;;;;;;;;24.75;nan;100629.88;5052479;28;1213;-43
2022/09/24 11:13:53;;;;;;;;;;;;;;;24.74;nan;100628.19;5052728;28;1211;-42
2022/09/24 11:16:22;;;;;;;;;;;;;;;24.74;nan;100627.34;5052257;28;1346;-42
2022/09/24 11:18:49;;;;;;;;;;;;;;;24.74;nan;100622.03;5052156;28;1277;-43
2022/09/24 11:21:22;;;;;;;;;;;;;;;24.75;nan;100618.38;5051966;28;1185;-42
2022/09/24 11:23:49;;;;;;;;;;;;;;;24.76;nan;100604.94;5053197;28;1098;-42
2022/09/24 11:26:15;;;;;;;;;;;;;;;24.76;nan;100606.75;5056215;28;1237;-42
2022/09/24 11:28:45;;;;;;;;;;;;;;;24.76;nan;100602.28;5056192;28;1914;-42
2022/09/24 11:31:15;;;;;;;;;;;;;;;24.79;nan;100614.47;5055834;28;1165;-43
2022/09/24 11:33:56;;;;;;;;;;;;;;;24.79;nan;100603.81;5055540;28;1191;-43
2022/09/24 11:36:26;;;;;;;;;;;;;;;24.77;nan;100597.78;5055800;28;1280;-43
2022/09/24 11:39:11;;;;;;;;;;;;;;;24.74;nan;100606.03;5055975;28;1063;-43
2022/09/24 11:41:38;;;;;;;;;;;;;;;24.74;nan;100612.22;5055555;28;1691;-42
2022/09/24 11:44:16;;;;;;;;;;;;;;;24.73;nan;100612.34;5055745;28;1070;-44
2022/09/24 11:46:46;;;;;;;;;;;;;;;24.72;nan;100615.97;5055796;28;1914;-43
2022/09/24 11:49:31;;;;;;;;;;;;;;;24.71;nan;100619.63;5055628;28;1055;-43
2022/09/24 11:52:11;;;;;;;;;;;;;;;24.71;nan;100624.94;5055789;28;1347;-43
2022/09/24 11:54:53;;;;;;;;;;;;;;;24.71;nan;100624.94;5055421;28;1095;-43
2022/09/24 11:57:26;;;;;;;;;;;;;;;24.72;nan;100630.13;5055909;28;990;-43
2022/09/24 12:00:06;;;;;;;;;;;;;;;24.73;nan;100647.81;5055418;28;1394;-43
2022/09/24 12:02:35;;;;;;;;;;;;;;;24.72;nan;100639.94;5055994;28;1127;-42
2022/09/24 12:05:18;;;;;;;;;;;;;;;24.70;nan;100628.56;5055528;28;1308;-43
2022/09/24 12:07:51;;;;;;;;;;;;;;;24.70;nan;100628.56;5054151;28;1914;-43
2022/09/24 12:10:18;;;;;;;;;;;;;;;24.70;nan;100644.56;5055193;28;1277;-43
2022/09/24 12:12:46;;;;;;;;;;;;;;;24.71;nan;100646.25;5055447;28;1094;-42
2022/09/24 12:15:18;;;;;;;;;;;;;;;24.73;nan;100636.31;5054953;28;1201;-44
2022/09/24 12:17:50;;;;;;;;;;;;;;;24.72;nan;100630.13;5055251;28;1105;-43
2022/09/24 12:20:22;;;;;;;;;;;;;;;24.73;nan;100626.50;5087151;28;1363;-44
2022/09/24 12:22:54;;;;;;;;;;;;;;;24.74;nan;100622.03;5055688;28;1138;-42
2022/09/24 12:25:21;;;;;;;;;;;;;;;24.74;nan;100611.38;5055061;28;1248;-43
2022/09/24 12:27:48;;;;;;;;;;;;;;;24.73;nan;100610.53;5055437;28;1909;-43
2022/09/24 12:33:37;;;;;;;;;;;;;;;24.72;nan;100603.50;5050804;28;1710;-43
2022/09/24 12:36:08;;;;;;;;;;;;;;;24.72;nan;100597.31;5052894;28;1327;-43
2022/09/24 12:38:41;;;;;;;;;;;;;;;24.71;nan;100600.97;5054902;28;1284;-42
2022/09/24 12:41:08;;;;;;;;;;;;;;;24.74;nan;100595.38;5053369;28;1434;-39
2022/09/24 12:43:42;;;;;;;;;;;;;;;24.75;nan;100581.94;5050288;28;1314;-41
2022/09/24 12:46:15;;;;;;;;;;;;;;;24.76;nan;100580.09;5041628;28;1316;-43
2022/09/24 12:48:43;;;;;;;;;;;;;;;24.78;nan;100576.34;5035673;28;1981;-38
2022/09/24 12:51:11;;;;;;;;;;;;;;;24.79;nan;100567.38;5040793;28;1607;-42
2022/09/24 12:53:40;;;;;;;;;;;;;;;24.81;nan;100572.59;5050696;28;1173;-42
2022/09/24 12:56:08;;;;;;;;;;;;;;;24.84;nan;100564.34;5051883;28;1236;-41
2022/09/24 12:58:35;;;;;;;;;;;;;;;24.85;nan;100563.38;5035285;28;1240;-41
2022/09/24 13:01:12;;;;;;;;;;;;;;;24.87;nan;100561.41;5039528;28;1244;-38
2022/09/24 13:03:40;;;;;;;;;;;;;;;24.89;nan;100559.47;5035277;28;1170;-41
2022/09/24 13:06:46;;;;;;;;;;;;;;;24.92;nan;100565.41;5038961;28;1288;-39
2022/09/24 13:09:22;;;;;;;;;;;;;;;24.92;nan;100557.41;5058722;28;1975;-39
2022/09/24 13:12:13;;;;;;;;;;;;;;;24.91;nan;100555.72;5044001;28;1288;-40
2022/09/24 13:14:41;;;;;;;;;;;;;;;24.90;nan;100546.00;5050865;28;950;-36
2022/09/24 13:17:08;;;;;;;;;;;;;;;24.90;nan;100553.16;5041140;28;1021;-42
2022/09/24 13:19:39;;;;;;;;;;;;;;;24.88;nan;100542.66;5034795;28;808;-42
2022/09/24 13:22:25;;;;;;;;;;;;;;;24.90;nan;100537.19;5037304;28;1193;-41
2022/09/24 13:25:03;;;;;;;;;;;;;;;24.89;nan;100531.03;5049651;28;1300;-39
2022/09/24 13:27:30;;;;;;;;;;;;;;;24.92;nan;100536.09;5037176;28;1918;-41
2022/09/24 13:30:23;;;;;;;;;;;;;;;24.94;nan;100533.28;5034654;28;1326;-40
2022/09/24 13:32:52;;;;;;;;;;;;;;;24.93;nan;100537.75;5048274;28;1745;-41
2022/09/24 13:35:23;;;;;;;;;;;;;;;24.93;nan;100542.25;5044691;28;1766;-42
2022/09/24 13:37:54;;;;;;;;;;;;;;;24.93;nan;100542.25;5048742;28;1450;-37